createdAt,value
2022-10-25T00:02:19.503Z,16.20
2022-10-25T00:04:47.203Z,17.50
2022-10-25T00:07:14.086Z,14.88
2022-10-25T00:09:41.345Z,10.05
2022-10-25T00:12:08.594Z,13.55
2022-10-25T00:14:36.648Z,11.85
2022-10-25T00:17:03.555Z,9.70
2022-10-25T00:19:30.368Z,10.90
2022-10-25T00:21:57.135Z,12.95
2022-10-25T00:24:24.050Z,10.00
2022-10-25T00:26:51.072Z,9.70
2022-10-25T00:29:18.342Z,8.32
2022-10-25T00:31:48.050Z,9.48
2022-10-25T00:34:14.815Z,11.52
2022-10-25T00:36:43.177Z,11.40
2022-10-25T00:39:12.427Z,10.70
2022-10-25T00:44:40.957Z,10.57
2022-10-25T00:47:23.420Z,9.45
2022-10-25T00:49:59.213Z,10.63
2022-10-25T00:52:28.245Z,8.55
2022-10-25T00:54:55.145Z,10.65
2022-10-25T00:57:37.070Z,9.07
2022-10-25T01:00:06.304Z,10.20
2022-10-25T01:02:33.375Z,11.73
2022-10-25T01:05:00.332Z,10.25
2022-10-25T01:07:30.775Z,10.48
2022-10-25T01:09:58.369Z,9.55
2022-10-25T01:12:25.135Z,11.82
2022-10-25T01:14:52.980Z,10.85
2022-10-25T01:17:47.652Z,12.07
2022-10-25T01:20:23.471Z,8.05
2022-10-25T01:23:33.973Z,10.85
2022-10-25T01:26:29.324Z,10.48
2022-10-25T01:29:34.084Z,11.88
2022-10-25T01:32:44.183Z,13.23
2022-10-25T01:35:39.137Z,12.13
2022-10-25T01:38:28.772Z,12.75
2022-10-25T01:41:14.546Z,13.95
2022-10-25T01:43:49.399Z,16.58
2022-10-25T01:46:25.694Z,10.95
2022-10-25T01:49:05.958Z,13.27
2022-10-25T01:51:36.907Z,12.90
2022-10-25T01:54:16.581Z,12.77
2022-10-25T01:57:02.613Z,15.07
2022-10-25T01:59:53.505Z,11.77
2022-10-25T02:02:30.297Z,14.95
2022-10-25T02:05:09.111Z,17.33
2022-10-25T02:07:43.651Z,17.10
2022-10-25T02:10:28.829Z,14.10
2022-10-25T02:13:01.338Z,13.27
2022-10-25T02:15:41.168Z,14.93
2022-10-25T02:18:19.073Z,12.13
2022-10-25T02:20:47.703Z,14.75
2022-10-25T02:23:25.245Z,10.25
2022-10-25T02:25:53.659Z,13.80
2022-10-25T02:28:26.174Z,9.68
2022-10-25T02:30:54.641Z,12.43
2022-10-25T02:33:22.039Z,11.73
2022-10-25T02:36:14.040Z,12.05
2022-10-25T02:38:41.977Z,12.35
2022-10-25T02:41:08.910Z,12.07
2022-10-25T02:43:37.541Z,11.40
2022-10-25T02:46:13.046Z,10.90
2022-10-25T02:48:42.389Z,11.23
2022-10-25T02:51:10.548Z,10.65
2022-10-25T02:53:37.673Z,12.20
2022-10-25T02:56:13.317Z,11.52
2022-10-25T02:58:43.071Z,11.52
2022-10-25T03:01:10.654Z,11.30
2022-10-25T03:03:37.395Z,15.57
2022-10-25T03:06:04.689Z,12.88
2022-10-25T03:08:31.800Z,15.48
2022-10-25T03:10:59.079Z,11.00
2022-10-25T03:13:26.355Z,10.73
2022-10-25T03:15:53.087Z,13.10
2022-10-25T03:18:27.754Z,11.55
2022-10-25T03:20:59.591Z,12.30
2022-10-25T03:23:27.318Z,15.27
2022-10-25T03:26:37.654Z,14.57
2022-10-25T03:29:03.660Z,13.38
2022-10-25T03:31:41.072Z,12.65
2022-10-25T03:34:07.767Z,14.45
2022-10-25T03:36:34.631Z,12.60
2022-10-25T03:39:01.395Z,14.45
2022-10-25T03:41:31.002Z,13.77
2022-10-25T03:43:58.305Z,15.57
2022-10-25T03:46:25.688Z,15.77
2022-10-25T03:48:52.476Z,17.23
2022-10-25T03:51:19.304Z,13.30
2022-10-25T03:53:46.578Z,13.68
2022-10-25T03:56:13.492Z,13.05
2022-10-25T03:58:47.455Z,13.05
2022-10-25T04:01:18.494Z,14.05
2022-10-25T04:03:45.328Z,14.48
2022-10-25T04:06:12.325Z,14.68
2022-10-25T04:08:40.175Z,13.10
2022-10-25T04:11:07.088Z,14.00
2022-10-25T04:13:33.787Z,14.02
2022-10-25T04:16:00.415Z,12.85
2022-10-25T04:18:27.038Z,15.45
2022-10-25T04:20:54.077Z,17.10
2022-10-25T04:23:20.897Z,14.98
2022-10-25T04:25:49.807Z,13.93
2022-10-25T04:28:17.406Z,13.48
2022-10-25T04:30:44.270Z,16.75
2022-10-25T04:33:11.055Z,16.80
2022-10-25T04:35:37.805Z,18.42
2022-10-25T04:38:04.653Z,15.07
2022-10-25T04:40:32.166Z,16.58
2022-10-25T04:43:02.721Z,15.10
2022-10-25T04:45:30.050Z,16.02
2022-10-25T04:47:57.690Z,17.88
2022-10-25T04:50:25.085Z,17.25
2022-10-25T04:52:52.081Z,16.30
2022-10-25T04:55:41.780Z,16.75
2022-10-25T04:58:09.183Z,19.73
2022-10-25T05:00:36.325Z,17.85
2022-10-25T05:03:03.527Z,18.35
2022-10-25T05:05:30.183Z,19.63
2022-10-25T05:07:57.477Z,18.52
2022-10-25T05:10:24.214Z,18.35
2022-10-25T05:12:54.816Z,21.95
2022-10-25T05:15:21.639Z,20.13
2022-10-25T05:17:48.356Z,21.75
2022-10-25T05:20:15.118Z,20.58
2022-10-25T05:22:41.795Z,21.33
2022-10-25T05:25:08.761Z,20.50
2022-10-25T05:27:39.040Z,19.80
2022-10-25T05:30:06.413Z,20.27
2022-10-25T05:32:33.287Z,23.08
2022-10-25T05:34:59.887Z,21.40
2022-10-25T05:37:26.505Z,22.52
2022-10-25T05:39:53.142Z,21.52
2022-10-25T05:42:19.805Z,23.42
2022-10-25T05:44:49.244Z,22.63
2022-10-25T05:47:16.134Z,24.83
2022-10-25T05:49:42.833Z,20.88
2022-10-25T05:52:09.860Z,20.27
2022-10-25T05:54:36.512Z,23.85
2022-10-25T05:57:03.215Z,22.17
2022-10-25T05:59:29.958Z,20.58
2022-10-25T06:01:56.783Z,20.38
2022-10-25T06:04:24.402Z,19.85
2022-10-25T06:06:52.247Z,20.85
2022-10-25T06:09:18.945Z,17.75
2022-10-25T06:11:45.658Z,20.17
2022-10-25T06:14:12.415Z,18.65
2022-10-25T06:16:39.404Z,18.27
2022-10-25T06:19:07.465Z,22.63
2022-10-25T06:21:34.154Z,21.08
2022-10-25T06:24:01.320Z,22.65
2022-10-25T06:26:30.171Z,19.75
2022-10-25T06:28:59.989Z,18.63
2022-10-25T06:31:27.766Z,21.20
2022-10-25T06:33:54.761Z,17.48
2022-10-25T06:36:23.640Z,22.40
2022-10-25T06:38:53.209Z,20.83
2022-10-25T06:41:28.126Z,20.80
2022-10-25T06:43:55.708Z,19.70
2022-10-25T06:46:23.839Z,20.55
2022-10-25T06:48:52.828Z,17.05
2022-10-25T06:51:19.769Z,16.60
2022-10-25T06:53:46.898Z,16.23
2022-10-25T06:56:16.708Z,20.77
2022-10-25T06:58:54.190Z,15.63
2022-10-25T07:01:23.071Z,16.08
2022-10-25T07:03:54.030Z,16.73
2022-10-25T07:06:29.571Z,19.15
2022-10-25T07:08:59.026Z,17.35
2022-10-25T07:11:27.644Z,18.30
2022-10-25T07:13:55.758Z,17.90
2022-10-25T07:16:22.616Z,13.38
2022-10-25T07:18:49.389Z,15.98
2022-10-25T07:21:23.305Z,16.15
2022-10-25T07:24:05.012Z,18.23
2022-10-25T07:26:39.329Z,18.15
2022-10-25T07:29:06.245Z,15.98
2022-10-25T07:31:38.300Z,18.60
2022-10-25T07:34:06.251Z,14.98
2022-10-25T07:36:33.419Z,14.00
2022-10-25T07:39:11.052Z,17.65
2022-10-25T07:41:51.104Z,15.63
2022-10-25T07:44:22.585Z,18.40
2022-10-25T07:46:52.206Z,17.13
2022-10-25T07:49:18.909Z,14.15
2022-10-25T07:51:46.416Z,19.33
2022-10-25T07:54:16.211Z,15.43
2022-10-25T07:56:43.104Z,15.57
2022-10-25T07:59:09.948Z,16.10
2022-10-25T08:01:36.934Z,11.95
2022-10-25T08:04:04.048Z,14.32
2022-10-25T08:06:30.847Z,12.93
2022-10-25T08:09:02.391Z,13.63
2022-10-25T08:11:36.761Z,13.15
2022-10-25T08:14:03.610Z,15.45
2022-10-25T08:16:41.647Z,15.93
2022-10-25T08:19:08.739Z,14.52
2022-10-25T08:21:35.730Z,13.98
2022-10-25T08:24:03.094Z,13.35
2022-10-25T08:29:19.687Z,13.45
2022-10-25T08:31:46.394Z,13.65
2022-10-25T08:34:14.661Z,11.00
2022-10-25T08:36:41.517Z,9.10
2022-10-25T08:39:08.338Z,12.85
2022-10-25T08:42:14.865Z,9.88
2022-10-25T08:44:58.497Z,10.18
2022-10-25T08:47:38.214Z,10.13
2022-10-25T08:50:23.473Z,8.40
2022-10-25T08:52:55.533Z,12.48
2022-10-25T08:55:31.809Z,9.57
2022-10-25T08:57:59.794Z,10.40
2022-10-25T09:00:38.123Z,9.55
2022-10-25T09:03:15.289Z,8.93
2022-10-25T09:06:10.457Z,8.43
2022-10-25T09:08:51.843Z,9.15
2022-10-25T09:11:48.091Z,8.38
2022-10-25T09:14:34.832Z,9.98
2022-10-25T09:17:18.409Z,9.98
2022-10-25T09:20:21.150Z,9.35
2022-10-25T09:23:00.889Z,8.02
2022-10-25T09:25:38.513Z,12.18
2022-10-25T09:28:15.186Z,7.40
2022-10-25T09:30:45.691Z,11.02
2022-10-25T09:35:47.237Z,7.32
2022-10-25T09:38:28.400Z,6.30
2022-10-25T09:41:06.436Z,9.25
2022-10-25T09:43:41.066Z,7.60
2022-10-25T09:46:19.576Z,8.90
2022-10-25T09:49:19.648Z,9.43
2022-10-25T09:51:57.416Z,7.85
2022-10-25T09:54:39.925Z,7.88
2022-10-25T09:57:06.671Z,8.35
2022-10-25T09:59:34.319Z,6.35
2022-10-25T10:02:01.097Z,6.97
2022-10-25T10:04:35.070Z,8.98
2022-10-25T10:07:32.774Z,9.38
2022-10-25T10:10:02.894Z,7.65
2022-10-25T10:12:39.342Z,7.28
2022-10-25T10:15:22.388Z,6.10
2022-10-25T10:18:27.726Z,8.88
2022-10-25T10:21:02.212Z,10.85
2022-10-25T10:23:37.516Z,7.85
2022-10-25T10:26:22.767Z,7.70
2022-10-25T10:28:53.831Z,6.05
2022-10-25T10:31:20.786Z,5.85
2022-10-25T10:33:49.849Z,5.10
2022-10-25T10:36:23.362Z,8.18
2022-10-25T10:38:50.294Z,5.25
2022-10-25T10:41:28.725Z,5.30
2022-10-25T10:44:13.041Z,6.15
2022-10-25T10:46:47.497Z,7.00
2022-10-25T10:49:16.032Z,4.15
2022-10-25T10:51:45.539Z,5.22
2022-10-25T10:54:26.072Z,5.25
2022-10-25T10:56:54.391Z,7.25
2022-10-25T10:59:34.929Z,5.30
2022-10-25T11:02:37.606Z,7.53
2022-10-25T11:05:17.901Z,6.82
2022-10-25T11:07:44.833Z,8.93
2022-10-25T11:10:17.512Z,9.07
2022-10-25T11:12:44.447Z,8.40
2022-10-25T11:15:14.755Z,6.22
2022-10-25T11:18:00.749Z,6.57
2022-10-25T11:20:35.595Z,5.38
2022-10-25T11:23:11.112Z,7.05
2022-10-25T11:25:49.870Z,5.13
2022-10-25T11:29:00.845Z,6.85
2022-10-25T11:32:13.506Z,5.65
2022-10-25T11:35:04.738Z,7.43
2022-10-25T11:37:46.077Z,5.22
2022-10-25T11:40:30.612Z,6.70
2022-10-25T11:43:25.358Z,8.55
2022-10-25T11:46:05.891Z,5.95
2022-10-25T11:48:49.393Z,4.68
2022-10-25T11:51:25.046Z,6.40
2022-10-25T11:54:29.976Z,3.47
2022-10-25T11:57:50.260Z,5.57
2022-10-25T12:00:29.189Z,4.28
2022-10-25T12:03:15.038Z,4.75
2022-10-25T12:05:49.584Z,4.30
2022-10-25T12:08:30.964Z,5.43
2022-10-25T12:11:07.679Z,5.60
2022-10-25T12:13:38.991Z,6.82
2022-10-25T12:16:11.428Z,5.40
2022-10-25T12:18:47.990Z,8.00
2022-10-25T12:21:27.424Z,5.47
2022-10-25T12:23:55.576Z,4.15
2022-10-25T12:26:40.764Z,6.78
2022-10-25T12:29:16.258Z,4.32
2022-10-25T12:31:50.234Z,5.22
2022-10-25T12:34:38.692Z,4.85
2022-10-25T12:37:16.522Z,5.78
2022-10-25T12:39:44.714Z,3.03
2022-10-25T12:42:20.179Z,2.75
2022-10-25T12:44:49.452Z,5.43
2022-10-25T12:47:30.948Z,6.55
2022-10-25T12:53:23.481Z,4.50
2022-10-25T12:56:02.699Z,8.23
2022-10-25T12:58:54.580Z,4.20
2022-10-25T13:01:30.602Z,2.97
2022-10-25T13:04:28.273Z,5.53
2022-10-25T13:06:57.286Z,6.18
2022-10-25T13:09:30.986Z,4.78
2022-10-25T13:12:07.613Z,5.95
2022-10-25T13:14:43.241Z,5.25
2022-10-25T13:17:16.125Z,4.63
2022-10-25T13:22:45.895Z,5.55
2022-10-25T13:25:13.657Z,6.32
2022-10-25T13:28:15.088Z,5.05
2022-10-25T13:30:42.910Z,2.42
2022-10-25T13:33:23.949Z,2.17
2022-10-25T13:35:50.636Z,3.92
2022-10-25T13:38:23.089Z,4.35
2022-10-25T13:41:07.441Z,4.80
2022-10-25T13:43:35.738Z,3.67
2022-10-25T13:46:03.066Z,4.90
2022-10-25T13:48:34.735Z,5.05
2022-10-25T13:51:12.364Z,4.47
2022-10-25T13:53:40.524Z,3.60
2022-10-25T13:56:23.573Z,6.00
2022-10-25T13:58:52.881Z,4.05
2022-10-25T14:01:20.588Z,4.53
2022-10-25T14:04:02.351Z,4.50
2022-10-25T14:06:36.514Z,3.05
2022-10-25T14:09:08.751Z,6.55
2022-10-25T14:11:59.908Z,7.20
2022-10-25T14:14:53.136Z,4.05
2022-10-25T14:17:35.315Z,4.80
2022-10-25T14:20:08.774Z,5.95
2022-10-25T14:22:56.477Z,3.00
2022-10-25T14:25:27.796Z,4.63
2022-10-25T14:28:07.940Z,7.63
2022-10-25T14:30:40.167Z,4.80
2022-10-25T14:33:36.755Z,6.25
2022-10-25T14:36:05.956Z,5.22
2022-10-25T14:38:36.477Z,5.55
2022-10-25T14:41:10.000Z,3.78
2022-10-25T14:43:38.381Z,6.03
2022-10-25T14:46:12.418Z,4.32
2022-10-25T14:48:39.722Z,4.10
2022-10-25T14:51:14.543Z,4.13
2022-10-25T14:53:51.050Z,7.15
2022-10-25T14:56:26.261Z,4.28
2022-10-25T14:58:53.396Z,5.68
2022-10-25T15:01:22.301Z,4.63
2022-10-25T15:03:52.733Z,4.35
2022-10-25T15:06:23.597Z,5.50
2022-10-25T15:09:10.226Z,4.38
2022-10-25T15:12:11.379Z,7.35
2022-10-25T15:14:38.534Z,3.53
2022-10-25T15:17:17.467Z,6.13
2022-10-25T15:20:26.321Z,4.88
2022-10-25T15:23:03.551Z,7.60
2022-10-25T15:25:33.596Z,4.68
2022-10-25T15:28:20.536Z,7.63
2022-10-25T15:30:50.238Z,5.22
2022-10-25T15:33:19.542Z,4.38
2022-10-25T15:35:48.561Z,8.25
2022-10-25T15:38:17.491Z,5.63
2022-10-25T15:40:45.174Z,8.27
2022-10-25T15:43:12.387Z,6.13
2022-10-25T15:45:39.518Z,7.13
2022-10-25T15:48:12.638Z,12.85
2022-10-25T15:50:54.026Z,9.82
2022-10-25T15:53:21.467Z,12.73
2022-10-25T15:55:49.306Z,7.85
2022-10-25T15:58:16.494Z,13.85
2022-10-25T16:00:43.894Z,13.38
2022-10-25T16:03:21.180Z,7.03
2022-10-25T16:05:49.795Z,7.82
2022-10-25T16:08:16.756Z,10.45
2022-10-25T16:10:43.918Z,8.73
2022-10-25T16:13:16.238Z,6.18
2022-10-25T16:15:43.404Z,7.40
2022-10-25T16:18:13.104Z,6.00
2022-10-25T16:20:39.816Z,6.32
2022-10-25T16:23:06.517Z,7.63
2022-10-25T16:25:33.400Z,5.57
2022-10-25T16:28:00.926Z,4.75
2022-10-25T16:30:33.828Z,4.90
2022-10-25T16:33:00.710Z,4.43
2022-10-25T16:35:27.426Z,6.78
2022-10-25T16:37:54.562Z,5.90
2022-10-25T16:40:22.380Z,6.28
2022-10-25T16:42:49.700Z,7.13
2022-10-25T16:45:19.730Z,8.00
2022-10-25T16:47:46.811Z,8.13
2022-10-25T16:50:14.849Z,8.82
2022-10-25T16:52:42.112Z,14.32
2022-10-25T16:55:10.110Z,9.10
2022-10-25T16:57:36.801Z,9.07
2022-10-25T17:00:04.572Z,7.15
2022-10-25T17:02:31.432Z,9.43
2022-10-25T17:04:58.157Z,7.68
2022-10-25T17:07:25.386Z,8.20
2022-10-25T17:09:52.412Z,12.23
2022-10-25T17:12:19.168Z,11.00
2022-10-25T17:14:45.894Z,9.27
2022-10-25T17:17:13.872Z,8.48
2022-10-25T17:19:40.636Z,8.77
2022-10-25T17:22:08.168Z,9.27
2022-10-25T17:24:37.417Z,9.82
2022-10-25T17:29:37.522Z,10.88
2022-10-25T17:32:04.279Z,10.45
2022-10-25T17:34:32.207Z,13.85
2022-10-25T17:37:00.168Z,9.70
2022-10-25T17:39:26.885Z,10.57
2022-10-25T17:41:53.529Z,11.45
2022-10-25T17:44:20.189Z,10.77
2022-10-25T17:46:48.236Z,11.48
2022-10-25T17:49:14.868Z,10.05
2022-10-25T17:51:43.798Z,9.85
2022-10-25T17:54:10.606Z,11.25
2022-10-25T17:56:37.187Z,12.95
2022-10-25T17:59:05.763Z,12.27
2022-10-25T18:01:35.221Z,11.80
2022-10-25T18:04:02.018Z,11.05
2022-10-25T18:06:29.050Z,16.67
2022-10-25T18:08:57.836Z,13.77
2022-10-25T18:11:26.431Z,15.02
2022-10-25T18:13:56.036Z,12.98
2022-10-25T18:16:26.132Z,11.60
2022-10-25T18:18:55.550Z,15.40
2022-10-25T18:21:22.307Z,12.52
2022-10-25T18:23:49.235Z,13.10
2022-10-25T18:26:17.580Z,19.20
2022-10-25T18:28:44.212Z,11.75
2022-10-25T18:31:12.733Z,14.75
2022-10-25T18:33:42.691Z,12.15
2022-10-25T18:36:13.208Z,10.32
2022-10-25T18:38:39.847Z,14.52
2022-10-25T18:41:08.281Z,16.67
2022-10-25T18:43:35.207Z,18.42
2022-10-25T18:46:02.181Z,13.43
2022-10-25T18:48:29.079Z,13.52
2022-10-25T18:50:56.005Z,12.27
2022-10-25T18:53:22.704Z,14.10
2022-10-25T18:55:51.244Z,81.65
2022-10-25T18:58:18.023Z,29.45
2022-10-25T19:00:45.280Z,25.00
2022-10-25T19:03:13.411Z,19.13
2022-10-25T19:05:40.626Z,17.63
2022-10-25T19:08:08.469Z,18.95
2022-10-25T19:10:39.804Z,14.80
2022-10-25T19:13:08.204Z,17.15
2022-10-25T19:15:35.059Z,18.27
2022-10-25T19:18:01.685Z,18.52
2022-10-25T19:20:28.371Z,16.13
2022-10-25T19:22:58.511Z,16.75
2022-10-25T19:25:29.727Z,17.40
2022-10-25T19:27:56.902Z,14.93
2022-10-25T19:30:24.125Z,15.75
2022-10-25T19:32:51.093Z,17.65
2022-10-25T19:35:18.328Z,17.30
2022-10-25T19:37:45.422Z,16.33
2022-10-25T19:40:12.320Z,18.25
2022-10-25T19:42:39.029Z,17.70
2022-10-25T19:45:06.031Z,18.95
2022-10-25T19:47:34.867Z,22.88
2022-10-25T19:50:03.305Z,18.65
2022-10-25T19:52:29.955Z,20.92
2022-10-25T19:54:56.591Z,18.40
2022-10-25T19:57:23.179Z,18.98
2022-10-25T19:59:49.850Z,21.30
2022-10-25T20:02:16.547Z,22.73
2022-10-25T20:04:43.309Z,19.98
2022-10-25T20:07:10.332Z,18.83
2022-10-25T20:09:36.914Z,21.80
2022-10-25T20:12:03.803Z,23.60
2022-10-25T20:14:33.251Z,25.35
2022-10-25T20:16:59.906Z,19.67
2022-10-25T20:19:26.511Z,28.27
2022-10-25T20:21:53.365Z,28.88
2022-10-25T20:24:19.976Z,27.35
2022-10-25T20:26:49.704Z,23.05
2022-10-25T20:29:22.711Z,20.60
2022-10-25T20:31:52.918Z,22.73
2022-10-25T20:34:20.497Z,21.08
2022-10-25T20:36:47.855Z,20.50
2022-10-25T20:39:14.904Z,23.00
2022-10-25T20:41:41.768Z,21.00
2022-10-25T20:44:09.812Z,25.10
2022-10-25T20:46:36.602Z,19.38
2022-10-25T20:49:04.780Z,18.05
2022-10-25T20:51:31.566Z,17.27
2022-10-25T20:53:58.162Z,19.05
2022-10-25T20:56:25.418Z,20.58
2022-10-25T20:58:52.240Z,26.05
2022-10-25T21:01:19.124Z,22.20
2022-10-25T21:03:46.753Z,27.30
2022-10-25T21:06:14.356Z,23.83
2022-10-25T21:08:41.608Z,24.83
2022-10-25T21:11:11.209Z,24.77
2022-10-25T21:13:38.144Z,24.70
2022-10-25T21:16:13.276Z,26.33
2022-10-25T21:18:40.690Z,23.77
2022-10-25T21:21:09.932Z,24.83
2022-10-25T21:23:36.704Z,23.33
2022-10-25T21:26:06.754Z,22.20
2022-10-25T21:28:36.774Z,24.02
2022-10-25T21:31:05.198Z,28.40
2022-10-25T21:33:31.810Z,23.98
2022-10-25T21:36:07.455Z,25.27
2022-10-25T21:38:34.345Z,23.25
2022-10-25T21:41:19.729Z,25.23
2022-10-25T21:43:48.780Z,30.02
2022-10-25T21:46:17.312Z,29.50
2022-10-25T21:48:47.231Z,30.33
2022-10-25T21:51:14.556Z,28.70
2022-10-25T21:53:41.383Z,34.65
2022-10-25T21:56:10.899Z,30.77
2022-10-25T21:58:42.402Z,25.88
2022-10-25T22:01:15.330Z,30.02
2022-10-25T22:03:42.129Z,33.88
2022-10-25T22:06:10.719Z,29.50
2022-10-25T22:08:37.657Z,30.52
2022-10-25T22:11:08.134Z,30.58
2022-10-25T22:13:35.274Z,27.98
2022-10-25T22:16:05.585Z,27.60
2022-10-25T22:18:33.153Z,23.52
2022-10-25T22:21:02.859Z,28.13
2022-10-25T22:23:30.839Z,26.52
2022-10-25T22:26:02.808Z,22.40
2022-10-25T22:28:30.198Z,25.85
2022-10-25T22:31:06.142Z,25.98
2022-10-25T22:33:33.858Z,32.40
2022-10-25T22:36:07.976Z,37.45
2022-10-25T22:38:35.297Z,31.52
2022-10-25T22:41:04.463Z,23.00
2022-10-25T22:43:33.710Z,28.15
2022-10-25T22:46:01.418Z,24.60
2022-10-25T22:48:32.526Z,24.15
2022-10-25T22:50:59.630Z,26.40
2022-10-25T22:53:26.939Z,20.80
2022-10-25T22:55:57.345Z,25.80
2022-10-25T22:58:25.590Z,24.30
2022-10-25T23:00:58.111Z,20.23
2022-10-25T23:03:25.196Z,22.30
2022-10-25T23:05:59.472Z,20.67
2022-10-25T23:08:27.556Z,22.38
2022-10-25T23:11:03.543Z,23.42
2022-10-25T23:13:32.519Z,27.25
2022-10-25T23:15:59.492Z,29.65
2022-10-25T23:18:26.809Z,21.65
2022-10-25T23:20:56.065Z,25.88
2022-10-25T23:23:23.900Z,25.55
2022-10-25T23:25:51.104Z,24.58
2022-10-25T23:28:17.887Z,27.20
2022-10-25T23:30:44.558Z,24.02
2022-10-25T23:33:12.583Z,26.52
2022-10-25T23:35:41.137Z,24.05
2022-10-25T23:38:11.867Z,24.25
2022-10-25T23:40:39.449Z,24.35
2022-10-25T23:43:06.392Z,23.92
2022-10-25T23:45:33.189Z,27.50
2022-10-25T23:48:00.179Z,24.95
2022-10-25T23:50:26.852Z,25.05
2022-10-25T23:52:53.903Z,24.33
2022-10-25T23:55:20.499Z,27.42
2022-10-25T23:57:47.159Z,25.70
